sensor_id;sensor_type;location;lat;lon;timestamp;pressure;altitude;pressure_sealevel;temperature;humidity
69796;BME280;57073;45.650;9.612;2023-03-18T00:02:57;99499.53;;;7.59;45.03
69796;BME280;57073;45.650;9.612;2023-03-18T00:07:57;99504.91;;;7.52;45.11
69796;BME280;57073;45.650;9.612;2023-03-18T00:12:58;99501.28;;;7.33;45.87
69796;BME280;57073;45.650;9.612;2023-03-18T00:17:58;99505.78;;;7.26;46.11
69796;BME280;57073;45.650;9.612;2023-03-18T00:22:59;99500.84;;;7.16;46.42
69796;BME280;57073;45.650;9.612;2023-03-18T00:27:59;99500.00;;;7.36;45.95
69796;BME280;57073;45.650;9.612;2023-03-18T00:32:59;99500.84;;;7.36;45.17
69796;BME280;57073;45.650;9.612;2023-03-18T00:38:00;99500.41;;;7.46;44.93
69796;BME280;57073;45.650;9.612;2023-03-18T00:43:03;99502.09;;;7.34;45.17
69796;BME280;57073;45.650;9.612;2023-03-18T00:48:07;99501.91;;;7.09;46.54
69796;BME280;57073;45.650;9.612;2023-03-18T00:53:08;99500.88;;;7.03;46.61
69796;BME280;57073;45.650;9.612;2023-03-18T00:58:09;99491.63;;;6.99;46.67
69796;BME280;57073;45.650;9.612;2023-03-18T01:03:10;99492.59;;;7.18;45.51
69796;BME280;57073;45.650;9.612;2023-03-18T01:08:10;99481.47;;;7.21;45.50
69796;BME280;57073;45.650;9.612;2023-03-18T01:13:11;99479.44;;;7.03;45.98
69796;BME280;57073;45.650;9.612;2023-03-18T01:18:11;99483.16;;;6.89;46.84
69796;BME280;57073;45.650;9.612;2023-03-18T01:23:12;99471.38;;;7.03;45.71
69796;BME280;57073;45.650;9.612;2023-03-18T01:28:13;99471.56;;;7.15;45.50
69796;BME280;57073;45.650;9.612;2023-03-18T01:33:14;99464.56;;;7.14;45.62
69796;BME280;57073;45.650;9.612;2023-03-18T01:38:14;99452.81;;;7.08;45.50
69796;BME280;57073;45.650;9.612;2023-03-18T01:43:21;99453.44;;;7.10;45.92
69796;BME280;57073;45.650;9.612;2023-03-18T01:48:26;99449.69;;;7.11;45.61
69796;BME280;57073;45.650;9.612;2023-03-18T01:53:30;99440.84;;;7.04;45.30
69796;BME280;57073;45.650;9.612;2023-03-18T01:58:38;99440.63;;;7.12;45.24
69796;BME280;57073;45.650;9.612;2023-03-18T02:03:40;99433.66;;;6.98;45.33
69796;BME280;57073;45.650;9.612;2023-03-18T02:08:42;99436.53;;;7.03;44.87
69796;BME280;57073;45.650;9.612;2023-03-18T02:13:44;99423.38;;;6.88;45.32
69796;BME280;57073;45.650;9.612;2023-03-18T02:18:48;99419.63;;;6.96;44.75
69796;BME280;57073;45.650;9.612;2023-03-18T02:24:09;99406.69;;;6.79;46.09
69796;BME280;57073;45.650;9.612;2023-03-18T02:29:14;99398.19;;;6.89;45.44
69796;BME280;57073;45.650;9.612;2023-03-18T02:34:17;99391.59;;;6.92;45.31
69796;BME280;57073;45.650;9.612;2023-03-18T02:39:20;99399.25;;;6.82;45.41
69796;BME280;57073;45.650;9.612;2023-03-18T02:44:21;99395.56;;;6.83;45.60
69796;BME280;57073;45.650;9.612;2023-03-18T02:49:23;99389.53;;;6.87;45.18
69796;BME280;57073;45.650;9.612;2023-03-18T02:54:26;99388.34;;;6.76;45.82
69796;BME280;57073;45.650;9.612;2023-03-18T02:59:27;99390.38;;;6.88;45.67
69796;BME280;57073;45.650;9.612;2023-03-18T03:04:28;99378.66;;;6.62;46.30
69796;BME280;57073;45.650;9.612;2023-03-18T03:09:28;99383.84;;;6.44;47.58
69796;BME280;57073;45.650;9.612;2023-03-18T03:14:30;99380.16;;;6.45;48.08
69796;BME280;57073;45.650;9.612;2023-03-18T03:19:30;99373.56;;;6.27;48.73
69796;BME280;57073;45.650;9.612;2023-03-18T03:24:30;99379.31;;;6.44;48.00
69796;BME280;57073;45.650;9.612;2023-03-18T03:29:31;99378.28;;;6.45;46.90
69796;BME280;57073;45.650;9.612;2023-03-18T03:34:31;99375.63;;;6.52;47.52
69796;BME280;57073;45.650;9.612;2023-03-18T03:39:32;99378.91;;;6.20;48.73
69796;BME280;57073;45.650;9.612;2023-03-18T03:44:33;99377.47;;;6.31;48.63
69796;BME280;57073;45.650;9.612;2023-03-18T03:49:33;99371.28;;;6.24;48.76
69796;BME280;57073;45.650;9.612;2023-03-18T03:54:33;99374.81;;;6.18;48.84
69796;BME280;57073;45.650;9.612;2023-03-18T03:59:34;99370.88;;;6.07;49.48
69796;BME280;57073;45.650;9.612;2023-03-18T04:04:35;99374.16;;;6.02;49.14
69796;BME280;57073;45.650;9.612;2023-03-18T04:09:35;99375.81;;;6.04;48.62
69796;BME280;57073;45.650;9.612;2023-03-18T04:14:35;99375.63;;;6.18;48.24
69796;BME280;57073;45.650;9.612;2023-03-18T04:19:36;99365.94;;;6.04;49.73
69796;BME280;57073;45.650;9.612;2023-03-18T04:24:36;99366.78;;;6.18;48.21
69796;BME280;57073;45.650;9.612;2023-03-18T04:29:37;99356.69;;;6.07;48.65
69796;BME280;57073;45.650;9.612;2023-03-18T04:34:37;99364.09;;;6.11;48.32
69796;BME280;57073;45.650;9.612;2023-03-18T04:39:37;99358.72;;;6.11;48.60
69796;BME280;57073;45.650;9.612;2023-03-18T04:44:38;99363.88;;;5.99;48.41
69796;BME280;57073;45.650;9.612;2023-03-18T04:49:39;99353.78;;;6.01;47.91
69796;BME280;57073;45.650;9.612;2023-03-18T04:54:39;99355.44;;;6.02;48.11
69796;BME280;57073;45.650;9.612;2023-03-18T04:59:40;99354.81;;;6.00;48.50
69796;BME280;57073;45.650;9.612;2023-03-18T05:04:40;99356.88;;;6.05;49.14
69796;BME280;57073;45.650;9.612;2023-03-18T05:09:41;99354.59;;;5.89;49.42
69796;BME280;57073;45.650;9.612;2023-03-18T05:14:42;99361.19;;;6.06;48.61
69796;BME280;57073;45.650;9.612;2023-03-18T05:19:44;99345.94;;;5.93;48.39
69796;BME280;57073;45.650;9.612;2023-03-18T05:24:46;99362.03;;;5.87;49.29
69796;BME280;57073;45.650;9.612;2023-03-18T05:29:47;99355.44;;;6.09;49.04
69796;BME280;57073;45.650;9.612;2023-03-18T05:34:47;99356.69;;;6.07;48.54
69796;BME280;57073;45.650;9.612;2023-03-18T05:39:48;99366.78;;;6.18;49.08
69796;BME280;57073;45.650;9.612;2023-03-18T05:44:48;99373.56;;;6.14;49.23
69796;BME280;57073;45.650;9.612;2023-03-18T05:49:49;99372.31;;;6.10;49.69
69796;BME280;57073;45.650;9.612;2023-03-18T05:54:50;99374.78;;;6.11;48.99
69796;BME280;57073;45.650;9.612;2023-03-18T05:59:50;99370.25;;;6.12;49.57
69796;BME280;57073;45.650;9.612;2023-03-18T06:04:51;99368.41;;;6.19;49.41
69796;BME280;57073;45.650;9.612;2023-03-18T06:09:51;99368.78;;;6.43;49.02
69796;BME280;57073;45.650;9.612;2023-03-18T06:14:53;99379.91;;;6.53;47.99
69796;BME280;57073;45.650;9.612;2023-03-18T06:19:53;99393.94;;;6.42;49.40
69796;BME280;57073;45.650;9.612;2023-03-18T06:24:54;99396.22;;;6.45;49.43
69796;BME280;57073;45.650;9.612;2023-03-18T06:29:54;99397.88;;;6.59;49.13
69796;BME280;57073;45.650;9.612;2023-03-18T06:34:55;99399.91;;;6.57;49.26
69796;BME280;57073;45.650;9.612;2023-03-18T06:39:55;99390.84;;;6.58;48.47
69796;BME280;57073;45.650;9.612;2023-03-18T06:44:56;99392.28;;;6.40;49.03
69796;BME280;57073;45.650;9.612;2023-03-18T06:49:56;99400.34;;;6.54;50.06
69796;BME280;57073;45.650;9.612;2023-03-18T06:54:57;99406.69;;;6.79;49.77
69796;BME280;57073;45.650;9.612;2023-03-18T06:59:57;99403.09;;;7.12;49.16
69796;BME280;57073;45.650;9.612;2023-03-18T07:04:58;99407.91;;;7.55;47.69
69796;BME280;57073;45.650;9.612;2023-03-18T07:09:59;99415.91;;;8.01;46.58
69796;BME280;57073;45.650;9.612;2023-03-18T07:14:59;99410.78;;;8.24;45.45
69796;BME280;57073;45.650;9.612;2023-03-18T07:20:00;99428.31;;;8.52;44.68
69796;BME280;57073;45.650;9.612;2023-03-18T07:25:00;99416.44;;;8.85;44.58
69796;BME280;57073;45.650;9.612;2023-03-18T07:30:02;99430.81;;;9.16;43.25
69796;BME280;57073;45.650;9.612;2023-03-18T07:35:06;99415.72;;;9.82;42.30
69796;BME280;57073;45.650;9.612;2023-03-18T07:40:10;99426.44;;;10.42;41.57
69796;BME280;57073;45.650;9.612;2023-03-18T07:45:11;99423.88;;;10.71;39.40
69796;BME280;57073;45.650;9.612;2023-03-18T07:50:11;99426.09;;;10.86;39.25
69796;BME280;57073;45.650;9.612;2023-03-18T07:55:13;99419.75;;;11.16;38.16
69796;BME280;57073;45.650;9.612;2023-03-18T08:00:13;99427.41;;;11.48;37.97
69796;BME280;57073;45.650;9.612;2023-03-18T08:05:14;99429.53;;;11.46;37.98
69796;BME280;57073;45.650;9.612;2023-03-18T08:10:15;99444.53;;;11.65;37.81
69796;BME280;57073;45.650;9.612;2023-03-18T08:15:15;99440.50;;;11.80;36.30
69796;BME280;57073;45.650;9.612;2023-03-18T08:20:17;99437.94;;;12.19;36.31
69796;BME280;57073;45.650;9.612;2023-03-18T08:25:18;99444.03;;;12.43;35.32
69796;BME280;57073;45.650;9.612;2023-03-18T08:30:21;99438.19;;;12.68;34.57
69796;BME280;57073;45.650;9.612;2023-03-18T08:35:24;99442.78;;;12.84;35.06
69796;BME280;57073;45.650;9.612;2023-03-18T08:40:25;99442.06;;;12.72;35.41
69796;BME280;57073;45.650;9.612;2023-03-18T08:45:26;99450.84;;;13.18;34.61
69796;BME280;57073;45.650;9.612;2023-03-18T08:50:27;99446.09;;;13.25;34.34
69796;BME280;57073;45.650;9.612;2023-03-18T08:55:33;99448.69;;;13.37;33.89
69796;BME280;57073;45.650;9.612;2023-03-18T09:00:37;99444.03;;;13.82;34.02
69796;BME280;57073;45.650;9.612;2023-03-18T09:05:38;99445.44;;;14.07;34.43
69796;BME280;57073;45.650;9.612;2023-03-18T09:10:39;99446.47;;;14.05;33.53
69796;BME280;57073;45.650;9.612;2023-03-18T09:15:40;99455.34;;;14.23;34.12
69796;BME280;57073;45.650;9.612;2023-03-18T09:20:41;99447.88;;;14.35;34.07
69796;BME280;57073;45.650;9.612;2023-03-18T09:25:42;99447.88;;;14.35;34.21
69796;BME280;57073;45.650;9.612;2023-03-18T09:30:43;99458.25;;;14.16;32.68
69796;BME280;57073;45.650;9.612;2023-03-18T09:35:43;99449.66;;;14.24;33.38
69796;BME280;57073;45.650;9.612;2023-03-18T09:46:42;99444.00;;;14.26;31.88
69796;BME280;57073;45.650;9.612;2023-03-18T09:52:23;99434.50;;;14.29;32.38
69796;BME280;57073;45.650;9.612;2023-03-18T09:57:27;99438.44;;;14.43;32.43
69796;BME280;57073;45.650;9.612;2023-03-18T10:02:39;99443.50;;;14.67;33.22
69796;BME280;57073;45.650;9.612;2023-03-18T10:07:42;99438.84;;;14.62;32.21
69796;BME280;57073;45.650;9.612;2023-03-18T10:12:49;99438.81;;;14.57;32.01
69796;BME280;57073;45.650;9.612;2023-03-18T10:18:10;99446.66;;;14.53;31.73
69796;BME280;57073;45.650;9.612;2023-03-18T10:29:17;99428.31;;;13.79;32.17
69796;BME280;57073;45.650;9.612;2023-03-18T10:34:22;99437.50;;;13.78;33.13
69796;BME280;57073;45.650;9.612;2023-03-18T10:39:27;99437.34;;;13.84;33.29
69796;BME280;57073;45.650;9.612;2023-03-18T10:44:34;99436.00;;;13.87;33.07
69796;BME280;57073;45.650;9.612;2023-03-18T10:49:40;99434.94;;;13.88;33.66
69796;BME280;57073;45.650;9.612;2023-03-18T11:00:38;99441.63;;;13.58;33.19
69796;BME280;57073;45.650;9.612;2023-03-18T11:05:40;99440.56;;;13.59;33.50
69796;BME280;57073;45.650;9.612;2023-03-18T11:10:45;99438.25;;;13.07;33.49
69796;BME280;57073;45.650;9.612;2023-03-18T11:15:55;99419.63;;;13.33;33.99
69796;BME280;57073;45.650;9.612;2023-03-18T11:20:57;99415.03;;;13.33;33.75
69796;BME280;57073;45.650;9.612;2023-03-18T11:26:01;99407.97;;;13.54;33.75
69796;BME280;57073;45.650;9.612;2023-03-18T11:31:04;99416.28;;;13.47;32.49
69796;BME280;57073;45.650;9.612;2023-03-18T11:36:06;99404.56;;;13.42;32.98
69796;BME280;57073;45.650;9.612;2023-03-18T11:41:26;99398.00;;;13.60;34.28
69796;BME280;57073;45.650;9.612;2023-03-18T11:46:43;99390.97;;;13.37;33.45
69796;BME280;57073;45.650;9.612;2023-03-18T11:58:06;99384.94;;;13.52;33.22
69796;BME280;57073;45.650;9.612;2023-03-18T12:20:24;99342.28;;;13.42;33.00
69796;BME280;57073;45.650;9.612;2023-03-18T12:45:58;99335.13;;;13.58;33.13
69796;BME280;57073;45.650;9.612;2023-03-18T12:51:06;99327.31;;;13.61;32.90
69796;BME280;57073;45.650;9.612;2023-03-18T12:56:26;99325.94;;;13.59;32.74
69796;BME280;57073;45.650;9.612;2023-03-18T13:02:12;99323.56;;;13.67;33.11
69796;BME280;57073;45.650;9.612;2023-03-18T13:07:41;99327.13;;;13.68;32.43
69796;BME280;57073;45.650;9.612;2023-03-18T13:12:46;99320.06;;;13.67;32.61
69796;BME280;57073;45.650;9.612;2023-03-18T13:17:50;99306.50;;;13.67;32.15
69796;BME280;57073;45.650;9.612;2023-03-18T13:23:02;99314.50;;;13.79;31.70
69796;BME280;57073;45.650;9.612;2023-03-18T13:44:14;99307.53;;;13.88;32.23
69796;BME280;57073;45.650;9.612;2023-03-18T13:49:27;99302.78;;;14.05;32.18
69796;BME280;57073;45.650;9.612;2023-03-18T13:54:36;99297.44;;;14.16;32.09
69796;BME280;57073;45.650;9.612;2023-03-18T14:04:45;99303.47;;;14.23;31.58
69796;BME280;57073;45.650;9.612;2023-03-18T14:25:24;99287.66;;;14.15;30.96
69796;BME280;57073;45.650;9.612;2023-03-18T14:35:55;99278.94;;;14.08;30.71
69796;BME280;57073;45.650;9.612;2023-03-18T14:40:57;99270.81;;;14.08;30.46
69796;BME280;57073;45.650;9.612;2023-03-18T14:46:04;99267.28;;;14.07;29.88
69796;BME280;57073;45.650;9.612;2023-03-18T14:51:18;99254.53;;;14.08;30.34
69796;BME280;57073;45.650;9.612;2023-03-18T14:56:22;99250.75;;;14.09;30.66
69796;BME280;57073;45.650;9.612;2023-03-18T15:01:27;99247.47;;;14.01;29.80
69796;BME280;57073;45.650;9.612;2023-03-18T15:06:32;99241.19;;;13.96;30.12
69796;BME280;57073;45.650;9.612;2023-03-18T15:11:42;99238.19;;;13.92;29.29
69796;BME280;57073;45.650;9.612;2023-03-18T15:16:52;99231.63;;;13.83;29.44
69796;BME280;57073;45.650;9.612;2023-03-18T15:21:56;99233.69;;;13.76;29.59
69796;BME280;57073;45.650;9.612;2023-03-18T15:27:09;99235.13;;;13.83;29.83
69796;BME280;57073;45.650;9.612;2023-03-18T15:32:23;99241.66;;;13.88;29.14
69796;BME280;57073;45.650;9.612;2023-03-18T15:42:33;99229.13;;;13.81;29.91
69796;BME280;57073;45.650;9.612;2023-03-18T15:47:34;99240.78;;;13.82;30.42
69796;BME280;57073;45.650;9.612;2023-03-18T15:52:40;99232.88;;;13.75;30.04
69796;BME280;57073;45.650;9.612;2023-03-18T15:57:42;99229.59;;;13.73;30.28
69796;BME280;57073;45.650;9.612;2023-03-18T16:02:42;99231.25;;;13.74;30.33
69796;BME280;57073;45.650;9.612;2023-03-18T16:07:42;99234.00;;;13.47;30.76
69796;BME280;57073;45.650;9.612;2023-03-18T16:12:44;99245.19;;;13.56;30.85
69796;BME280;57073;45.650;9.612;2023-03-18T16:17:45;99245.19;;;13.56;30.56
69796;BME280;57073;45.650;9.612;2023-03-18T16:22:48;99244.78;;;13.42;30.31
69796;BME280;57073;45.650;9.612;2023-03-18T16:27:51;99250.25;;;13.47;30.28
69796;BME280;57073;45.650;9.612;2023-03-18T16:32:54;99258.38;;;13.47;30.42
69796;BME280;57073;45.650;9.612;2023-03-18T16:37:54;99256.94;;;13.39;30.65
69796;BME280;57073;45.650;9.612;2023-03-18T16:42:55;99267.97;;;13.33;30.66
69796;BME280;57073;45.650;9.612;2023-03-18T16:48:01;99272.28;;;13.28;30.48
69796;BME280;57073;45.650;9.612;2023-03-18T16:53:18;99266.81;;;13.23;30.68
69796;BME280;57073;45.650;9.612;2023-03-18T16:58:23;99285.53;;;13.03;30.78
69796;BME280;57073;45.650;9.612;2023-03-18T17:03:26;99291.59;;;13.10;31.07
69796;BME280;57073;45.650;9.612;2023-03-18T17:08:26;99294.88;;;12.90;31.27
69796;BME280;57073;45.650;9.612;2023-03-18T17:13:29;99297.03;;;12.93;31.76
69796;BME280;57073;45.650;9.612;2023-03-18T17:18:30;99301.28;;;12.84;32.29
69796;BME280;57073;45.650;9.612;2023-03-18T17:23:30;99301.72;;;12.76;32.44
69796;BME280;57073;45.650;9.612;2023-03-18T17:28:37;99320.25;;;12.50;32.66
69796;BME280;57073;45.650;9.612;2023-03-18T17:33:38;99324.13;;;12.37;33.11
69796;BME280;57073;45.650;9.612;2023-03-18T17:38:38;99319.63;;;12.26;33.05
69796;BME280;57073;45.650;9.612;2023-03-18T17:43:38;99315.31;;;12.25;32.73
69796;BME280;57073;45.650;9.612;2023-03-18T17:48:39;99328.19;;;12.18;32.71
69796;BME280;57073;45.650;9.612;2023-03-18T17:53:45;99328.19;;;12.18;33.13
69796;BME280;57073;45.650;9.612;2023-03-18T17:58:48;99328.91;;;12.13;32.88
69796;BME280;57073;45.650;9.612;2023-03-18T18:03:50;99327.53;;;12.10;33.05
69796;BME280;57073;45.650;9.612;2023-03-18T18:08:50;99333.75;;;12.11;32.99
69796;BME280;57073;45.650;9.612;2023-03-18T18:13:54;99343.75;;;12.10;32.83
69796;BME280;57073;45.650;9.612;2023-03-18T18:18:56;99351.00;;;12.10;33.48
69796;BME280;57073;45.650;9.612;2023-03-18T18:23:56;99348.16;;;12.17;32.51
69796;BME280;57073;45.650;9.612;2023-03-18T18:28:57;99354.06;;;12.30;32.51
69796;BME280;57073;45.650;9.612;2023-03-18T18:33:57;99363.78;;;12.31;33.46
69796;BME280;57073;45.650;9.612;2023-03-18T18:38:58;99366.50;;;12.14;34.04
69796;BME280;57073;45.650;9.612;2023-03-18T18:43:59;99353.72;;;12.27;33.07
69796;BME280;57073;45.650;9.612;2023-03-18T18:48:59;99367.56;;;12.47;32.68
69796;BME280;57073;45.650;9.612;2023-03-18T18:54:00;99375.19;;;12.50;33.57
69796;BME280;57073;45.650;9.612;2023-03-18T18:59:01;99387.97;;;12.38;33.55
69796;BME280;57073;45.650;9.612;2023-03-18T19:04:13;99389.84;;;12.21;33.94
69796;BME280;57073;45.650;9.612;2023-03-18T19:09:17;99388.03;;;12.09;34.65
69796;BME280;57073;45.650;9.612;2023-03-18T19:14:22;99398.75;;;12.04;34.05
69796;BME280;57073;45.650;9.612;2023-03-18T19:19:28;99395.28;;;11.92;33.87
69796;BME280;57073;45.650;9.612;2023-03-18T19:24:33;99393.56;;;11.86;34.47
69796;BME280;57073;45.650;9.612;2023-03-18T19:29:35;99385.78;;;11.72;34.92
69796;BME280;57073;45.650;9.612;2023-03-18T19:34:36;99389.59;;;11.60;35.31
69796;BME280;57073;45.650;9.612;2023-03-18T19:39:37;99396.63;;;11.61;34.85
69796;BME280;57073;45.650;9.612;2023-03-18T19:44:37;99388.53;;;11.61;35.32
69796;BME280;57073;45.650;9.612;2023-03-18T19:49:38;99400.41;;;11.48;35.73
69796;BME280;57073;45.650;9.612;2023-03-18T19:54:38;99407.94;;;11.46;36.29
69796;BME280;57073;45.650;9.612;2023-03-18T19:59:39;99410.28;;;11.42;35.83
69796;BME280;57073;45.650;9.612;2023-03-18T20:04:40;99429.53;;;11.46;35.56
69796;BME280;57073;45.650;9.612;2023-03-18T20:09:41;99424.75;;;11.36;36.74
69796;BME280;57073;45.650;9.612;2023-03-18T20:14:41;99422.28;;;11.34;36.50
69796;BME280;57073;45.650;9.612;2023-03-18T20:19:41;99437.41;;;11.35;36.63
69796;BME280;57073;45.650;9.612;2023-03-18T20:24:42;99445.31;;;11.25;36.95
69796;BME280;57073;45.650;9.612;2023-03-18T20:29:43;99444.28;;;11.03;38.22
69796;BME280;57073;45.650;9.612;2023-03-18T20:34:45;99458.72;;;10.96;39.27
69796;BME280;57073;45.650;9.612;2023-03-18T20:39:47;99470.91;;;10.87;40.25
69796;BME280;57073;45.650;9.612;2023-03-18T20:44:47;99473.09;;;10.67;39.79
69796;BME280;57073;45.650;9.612;2023-03-18T20:49:48;99479.34;;;10.79;39.44
69796;BME280;57073;45.650;9.612;2023-03-18T20:54:48;99481.56;;;10.70;40.10
69796;BME280;57073;45.650;9.612;2023-03-18T20:59:49;99487.63;;;10.54;41.54
69796;BME280;57073;45.650;9.612;2023-03-18T21:04:50;99481.78;;;10.57;40.99
69796;BME280;57073;45.650;9.612;2023-03-18T21:09:51;99480.03;;;10.51;41.01
69796;BME280;57073;45.650;9.612;2023-03-18T21:14:51;99477.78;;;10.48;41.39
69796;BME280;57073;45.650;9.612;2023-03-18T21:19:54;99472.25;;;10.31;42.05
69796;BME280;57073;45.650;9.612;2023-03-18T21:24:57;99479.88;;;10.15;42.89
69796;BME280;57073;45.650;9.612;2023-03-18T21:29:58;99492.34;;;10.28;42.30
69796;BME280;57073;45.650;9.612;2023-03-18T21:34:58;99488.69;;;10.11;42.26
69796;BME280;57073;45.650;9.612;2023-03-18T21:39:59;99500.50;;;10.10;42.23
69796;BME280;57073;45.650;9.612;2023-03-18T21:44:59;99500.28;;;10.11;42.46
69796;BME280;57073;45.650;9.612;2023-03-18T21:50:00;99505.06;;;10.09;42.40
69796;BME280;57073;45.650;9.612;2023-03-18T21:55:02;99496.16;;;10.09;41.60
69796;BME280;57073;45.650;9.612;2023-03-18T22:00:03;99500.41;;;10.16;40.90
69796;BME280;57073;45.650;9.612;2023-03-18T22:05:10;99489.03;;;10.14;41.85
69796;BME280;57073;45.650;9.612;2023-03-18T22:10:16;99493.34;;;10.03;41.12
69796;BME280;57073;45.650;9.612;2023-03-18T22:20:23;99486.41;;;9.77;42.86
69796;BME280;57073;45.650;9.612;2023-03-18T22:25:33;99479.63;;;9.75;42.93
69796;BME280;57073;45.650;9.612;2023-03-18T22:30:36;99492.63;;;9.59;43.02
69796;BME280;57073;45.650;9.612;2023-03-18T22:35:38;99503.03;;;9.56;44.54
69796;BME280;57073;45.650;9.612;2023-03-18T22:40:39;99497.75;;;9.49;42.76
69796;BME280;57073;45.650;9.612;2023-03-18T22:45:40;99499.16;;;9.33;43.82
69796;BME280;57073;45.650;9.612;2023-03-18T22:50:40;99506.63;;;9.31;43.25
69796;BME280;57073;45.650;9.612;2023-03-18T22:55:41;99509.59;;;9.41;42.30
69796;BME280;57073;45.650;9.612;2023-03-18T23:00:42;99501.31;;;9.24;43.14
69796;BME280;57073;45.650;9.612;2023-03-18T23:05:45;99504.81;;;9.25;43.80
69796;BME280;57073;45.650;9.612;2023-03-18T23:10:47;99504.97;;;9.30;43.06
69796;BME280;57073;45.650;9.612;2023-03-18T23:15:48;99496.00;;;9.18;44.22
69796;BME280;57073;45.650;9.612;2023-03-18T23:20:49;99496.44;;;9.15;43.52
69796;BME280;57073;45.650;9.612;2023-03-18T23:25:50;99494.28;;;9.23;43.19
69796;BME280;57073;45.650;9.612;2023-03-18T23:30:51;99498.13;;;9.09;42.77
69796;BME280;57073;45.650;9.612;2023-03-18T23:35:52;99493.59;;;9.10;42.34
69796;BME280;57073;45.650;9.612;2023-03-18T23:40:52;99480.38;;;9.08;42.04
69796;BME280;57073;45.650;9.612;2023-03-18T23:45:53;99477.13;;;8.99;42.55
69796;BME280;57073;45.650;9.612;2023-03-18T23:50:53;99477.84;;;8.88;42.55
69796;BME280;57073;45.650;9.612;2023-03-18T23:55:53;99484.00;;;8.95;42.49
